Decoded Metar for KIEN (PINE RIDGE in SD, USA) (IATA:IEN) | Meteo·Mobile Aviation Weather
aviador You're here:

KIEN Decoded Metar

PINE RIDGE in SD, USA
Report Time2018-12-16 09:52:00
UTC Time2018-12-16 10:11:22
Flight Rules vfr VFR
Wind050° at 03 kt
W.Decomp.*RWY 06: 2.8 kt HW 1 kt LCW
RWY 12: 0.5 kt HW 3 kt LCW
W.Rank050° ranks 26
Current wind is below 050° avg. (6.3)
Visibility9999 m
Phenomena:N/A
Clouds:N/A
Expected CloudBase > 800 ft AGL from Temp-Dew spread
CeilingNone
Temp-5°C (ISA -14)
Dew Point-7°C (86% RH)
AAT-8.9°C
QNH1024 hPa
Density Alt1,306 ft
Elevation3,274 ft
Report Wrong Elevation
Raw Report
KIEN 160952Z AUTO 05003KT 10SM CLR M05/M07 A3023 RMK AO2 SLP260
T10501067=

Extra information for KIEN:More info

Metar Taf Metar & Taf Last 4 Metars F.Rules Stats Wind Profile Meteogram Temp Stats Airport Information Weather charts Add Link Nearby VenuesMetar ALERT Operation Metar Decoded Social comments

AIRNAV info for KIEN